Time,TemperatureF,DewpointF,PressureIn,WindDirection,WindDirectionDegrees,WindSpeedMPH,WindSpeedGustMPH,Humidity,HourlyPrecipIn,Conditions,Clouds,dailyrainin,SoftwareType,DateUTC
2013-02-04 00:02:00,34.1,33.1,30.08,East,80,0.0,0.0,96,0.00,,,0.00,VWS V14.01,2013-02-04 08:02:00,
2013-02-04 00:07:00,33.8,32.8,30.08,East,80,0.0,0.0,96,0.00,,,0.00,VWS V14.01,2013-02-04 08:07:00,
2013-02-04 00:12:00,33.9,33.1,30.08,East,80,0.0,0.0,97,0.00,,,0.00,VWS V14.01,2013-02-04 08:12:00,
2013-02-04 00:17:00,34.1,33.3,30.07,East,80,0.0,0.0,97,0.00,,,0.00,VWS V14.01,2013-02-04 08:17:00,
2013-02-04 00:22:00,35.0,34.2,30.07,East,80,0.0,0.0,97,0.00,,,0.00,VWS V14.01,2013-02-04 08:22:00,
2013-02-04 00:27:00,35.0,34.2,30.07,East,80,0.0,0.0,97,0.00,,,0.00,VWS V14.01,2013-02-04 08:27:00,
2013-02-04 00:32:00,35.3,34.5,30.07,East,80,0.0,0.0,97,0.00,,,0.00,VWS V14.01,2013-02-04 08:32:00,
2013-02-04 00:37:00,35.3,34.5,30.07,East,80,0.0,1.0,97,0.00,,,0.00,VWS V14.01,2013-02-04 08:37:00,
2013-02-04 00:42:00,35.7,34.9,30.07,East,80,0.0,0.0,97,0.00,,,0.00,VWS V14.01,2013-02-04 08:42:00,
2013-02-04 00:48:00,35.9,35.1,30.08,East,80,0.0,0.0,97,0.00,,,0.00,VWS V14.01,2013-02-04 08:48:00,
2013-02-04 00:53:00,36.0,35.2,30.08,East,80,0.0,0.0,97,0.00,,,0.00,VWS V14.01,2013-02-04 08:53:00,
2013-02-04 00:58:00,36.0,35.2,30.08,East,80,0.0,0.0,97,0.00,,,0.00,VWS V14.01,2013-02-04 08:58:00,
2013-02-04 01:03:00,36.0,35.2,30.07,East,80,0.0,0.0,97,0.00,,OVC100,0.00,VWS V14.01,2013-02-04 09:03:00,
2013-02-04 01:08:00,35.9,34.9,30.07,East,80,0.0,0.0,96,0.00,,OVC100,0.00,VWS V14.01,2013-02-04 09:08:00,
2013-02-04 01:13:00,35.9,34.9,30.07,East,80,0.0,0.0,96,0.00,,OVC100,0.00,VWS V14.01,2013-02-04 09:13:00,
2013-02-04 01:18:00,35.9,34.9,30.07,East,80,0.0,0.0,96,0.00,,OVC100,0.00,VWS V14.01,2013-02-04 09:18:00,
2013-02-04 01:23:00,35.6,34.6,30.07,East,80,0.0,0.0,96,0.00,,OVC100,0.00,VWS V14.01,2013-02-04 09:23:00,
2013-02-04 01:28:00,35.6,34.6,30.07,East,80,0.0,0.0,96,0.00,,OVC100,0.00,VWS V14.01,2013-02-04 09:28:00,
2013-02-04 01:33:00,35.4,34.4,30.07,East,80,0.0,0.0,96,0.00,,OVC100,0.00,VWS V14.01,2013-02-04 09:33:00,
2013-02-04 01:38:00,35.3,34.3,30.07,East,80,0.0,0.0,96,0.00,,OVC100,0.00,VWS V14.01,2013-02-04 09:38:00,
2013-02-04 01:43:00,35.1,34.1,30.07,East,80,0.0,0.0,96,0.00,,OVC100,0.00,VWS V14.01,2013-02-04 09:43:00,
2013-02-04 01:48:00,34.8,33.8,30.07,East,80,0.0,0.0,96,0.00,,OVC100,0.00,VWS V14.01,2013-02-04 09:48:00,
2013-02-04 01:54:00,34.7,33.4,30.07,East,80,0.0,0.0,95,0.00,,OVC100,0.00,VWS V14.01,2013-02-04 09:54:00,
2013-02-04 01:59:00,34.5,33.2,30.07,East,80,0.0,0.0,95,0.00,,OVC100,0.00,VWS V14.01,2013-02-04 09:59:00,
2013-02-04 02:04:00,34.5,33.2,30.07,East,80,0.0,0.0,95,0.00,,,0.00,VWS V14.01,2013-02-04 10:04:00,
2013-02-04 02:09:00,34.5,33.2,30.07,East,80,0.0,0.0,95,0.00,,,0.00,VWS V14.01,2013-02-04 10:09:00,
2013-02-04 02:14:00,34.7,33.4,30.07,East,80,0.0,0.0,95,0.00,,,0.00,VWS V14.01,2013-02-04 10:14:00,
2013-02-04 02:19:00,34.8,33.5,30.08,East,80,0.0,0.0,95,0.00,,,0.00,VWS V14.01,2013-02-04 10:19:00,
2013-02-04 02:24:00,35.0,33.7,30.08,West,275,0.0,0.0,95,0.00,,,0.00,VWS V14.01,2013-02-04 10:24:00,
2013-02-04 02:29:00,35.6,34.3,30.08,West,275,0.0,0.0,95,0.00,,,0.00,VWS V14.01,2013-02-04 10:29:00,
2013-02-04 02:34:00,35.6,34.3,30.07,WNW,302,1.0,1.0,95,0.00,,,0.00,VWS V14.01,2013-02-04 10:34:00,
2013-02-04 02:39:00,35.7,34.4,30.07,WNW,302,0.0,0.0,95,0.00,,,0.00,VWS V14.01,2013-02-04 10:39:00,
2013-02-04 02:44:00,36.0,34.7,30.07,WNW,302,0.0,0.0,95,0.00,,,0.00,VWS V14.01,2013-02-04 10:44:00,
2013-02-04 02:49:00,36.2,34.9,30.07,WNW,302,0.0,0.0,95,0.00,,,0.00,VWS V14.01,2013-02-04 10:49:00,
2013-02-04 02:54:00,36.2,34.1,30.07,WNW,302,2.0,2.0,92,0.00,,,0.00,VWS V14.01,2013-02-04 10:54:00,
2013-02-04 03:00:00,36.5,34.4,30.07,WNW,285,0.0,0.0,92,0.00,,,0.00,VWS V14.01,2013-02-04 11:00:00,
2013-02-04 03:05:00,36.5,34.1,30.07,WNW,285,0.0,2.0,91,0.00,,OVC011,0.00,VWS V14.01,2013-02-04 11:05:00,
2013-02-04 03:10:00,36.6,34.2,30.07,WNW,285,1.0,1.0,91,0.00,,OVC011,0.00,VWS V14.01,2013-02-04 11:10:00,
2013-02-04 03:15:00,36.8,34.2,30.07,WNW,285,0.0,2.0,90,0.00,,OVC011,0.00,VWS V14.01,2013-02-04 11:15:00,
2013-02-04 03:20:00,36.8,34.2,30.07,WNW,285,0.0,0.0,90,0.00,,OVC011,0.00,VWS V14.01,2013-02-04 11:20:00,
2013-02-04 03:25:00,36.9,34.2,30.07,WNW,285,0.0,0.0,90,0.00,,OVC011,0.00,VWS V14.01,2013-02-04 11:25:00,
2013-02-04 03:30:00,36.9,34.2,30.07,WNW,285,0.0,0.0,90,0.00,,OVC011,0.00,VWS V14.01,2013-02-04 11:30:00,
2013-02-04 03:36:00,36.9,34.2,30.08,WNW,285,0.0,0.0,90,0.00,,OVC011,0.00,VWS V14.01,2013-02-04 11:36:00,
2013-02-04 03:41:00,36.9,34.2,30.08,WNW,285,0.0,0.0,90,0.00,,OVC011,0.00,VWS V14.01,2013-02-04 11:41:00,
2013-02-04 03:46:00,36.9,34.2,30.08,WNW,285,2.0,2.0,90,0.00,,OVC011,0.00,VWS V14.01,2013-02-04 11:46:00,
2013-02-04 03:51:00,36.8,33.9,30.08,WNW,285,0.0,0.0,89,0.00,,OVC011,0.00,VWS V14.01,2013-02-04 11:51:00,
2013-02-04 03:56:00,36.8,33.9,30.08,WNW,285,0.0,0.0,89,0.00,,OVC011,0.00,VWS V14.01,2013-02-04 11:56:00,
2013-02-04 04:01:00,36.8,33.9,30.08,WNW,285,0.0,0.0,89,0.00,,OVC011,0.00,VWS V14.01,2013-02-04 12:01:00,
2013-02-04 04:06:00,36.8,33.9,30.08,WNW,285,0.0,0.0,89,0.00,,OVC011,0.00,VWS V14.01,2013-02-04 12:06:00,
2013-02-04 04:12:00,36.5,33.8,30.08,WNW,285,0.0,0.0,90,0.00,,OVC011,0.00,VWS V14.01,2013-02-04 12:12:00,
2013-02-04 04:17:00,36.5,33.8,30.08,WNW,285,0.0,0.0,90,0.00,,OVC011,0.00,VWS V14.01,2013-02-04 12:17:00,
2013-02-04 04:22:00,36.5,33.8,30.08,WNW,285,0.0,0.0,90,0.00,,OVC011,0.00,VWS V14.01,2013-02-04 12:22:00,
2013-02-04 04:27:00,36.5,33.8,30.08,WNW,285,0.0,0.0,90,0.00,,OVC011,0.00,VWS V14.01,2013-02-04 12:27:00,
2013-02-04 04:32:00,36.3,33.7,30.07,WNW,285,0.0,0.0,90,0.00,,OVC011,0.00,VWS V14.01,2013-02-04 12:32:00,
2013-02-04 04:37:00,36.2,33.6,30.07,WNW,285,0.0,0.0,90,0.00,,OVC011,0.00,VWS V14.01,2013-02-04 12:37:00,
2013-02-04 04:42:00,36.2,33.6,30.07,WNW,285,0.0,0.0,90,0.00,,OVC011,0.00,VWS V14.01,2013-02-04 12:42:00,
2013-02-04 04:48:00,36.0,33.4,30.07,WNW,285,0.0,0.0,90,0.00,,OVC011,0.00,VWS V14.01,2013-02-04 12:48:00,
2013-02-04 04:53:00,36.0,33.4,30.07,WNW,285,0.0,0.0,90,0.00,,OVC011,0.00,VWS V14.01,2013-02-04 12:53:00,
2013-02-04 04:58:00,36.0,33.4,30.07,WNW,285,0.0,0.0,90,0.00,,OVC011,0.00,VWS V14.01,2013-02-04 12:58:00,
2013-02-04 05:03:00,36.0,33.4,30.07,WNW,285,0.0,0.0,90,0.00,,OVC009,0.00,VWS V14.01,2013-02-04 13:03:00,
2013-02-04 05:08:00,36.0,33.4,30.07,WNW,285,0.0,0.0,90,0.00,,OVC009,0.00,VWS V14.01,2013-02-04 13:08:00,
2013-02-04 05:13:00,36.0,33.4,30.07,WNW,285,0.0,0.0,90,0.00,,OVC009,0.00,VWS V14.01,2013-02-04 13:13:00,
2013-02-04 05:18:00,36.0,33.4,30.06,WNW,285,0.0,0.0,90,0.00,,OVC009,0.00,VWS V14.01,2013-02-04 13:18:00,
2013-02-04 05:23:00,36.0,33.4,30.06,WNW,285,0.0,0.0,90,0.00,,OVC009,0.00,VWS V14.01,2013-02-04 13:23:00,
2013-02-04 05:28:00,36.0,33.4,30.06,WNW,285,0.0,0.0,90,0.00,,OVC009,0.00,VWS V14.01,2013-02-04 13:28:00,
2013-02-04 05:33:00,36.0,33.4,30.06,WNW,285,0.0,0.0,90,0.00,,OVC009,0.00,VWS V14.01,2013-02-04 13:33:00,
2013-02-04 05:38:00,36.0,33.4,30.06,WNW,285,0.0,0.0,90,0.00,,OVC009,0.00,VWS V14.01,2013-02-04 13:38:00,
2013-02-04 05:43:00,36.0,33.4,30.06,WNW,285,0.0,0.0,90,0.00,,OVC009,0.00,VWS V14.01,2013-02-04 13:43:00,
2013-02-04 05:48:00,35.9,33.3,30.08,WNW,285,0.0,0.0,90,0.00,,OVC009,0.00,VWS V14.01,2013-02-04 13:48:00,
2013-02-04 05:54:00,35.9,33.3,30.08,WNW,285,0.0,0.0,90,0.00,,OVC009,0.00,VWS V14.01,2013-02-04 13:54:00,
2013-02-04 05:59:00,35.9,33.3,30.08,WNW,285,0.0,0.0,90,0.00,,OVC009,0.00,VWS V14.01,2013-02-04 13:59:00,
2013-02-04 06:04:00,35.9,33.3,30.07,WNW,285,0.0,0.0,90,0.00,,OVC009,0.00,VWS V14.01,2013-02-04 14:04:00,
2013-02-04 06:09:00,35.9,33.3,30.07,WNW,285,0.0,0.0,90,0.00,,OVC009,0.00,VWS V14.01,2013-02-04 14:09:00,
2013-02-04 06:14:00,35.9,33.5,30.07,WNW,285,0.0,0.0,91,0.00,,OVC009,0.00,VWS V14.01,2013-02-04 14:14:00,
2013-02-04 06:19:00,36.0,33.6,30.07,WNW,285,1.0,1.0,91,0.00,,OVC009,0.00,VWS V14.01,2013-02-04 14:19:00,
2013-02-04 06:24:00,36.0,33.6,30.07,WNW,285,0.0,0.0,91,0.00,,OVC009,0.00,VWS V14.01,2013-02-04 14:24:00,
2013-02-04 06:29:00,36.0,33.6,30.07,WNW,285,0.0,0.0,91,0.00,,OVC009,0.00,VWS V14.01,2013-02-04 14:29:00,
2013-02-04 06:34:00,36.0,33.6,30.07,WNW,285,0.0,0.0,91,0.00,,OVC009,0.00,VWS V14.01,2013-02-04 14:34:00,
2013-02-04 06:39:00,36.0,33.6,30.07,WNW,285,0.0,0.0,91,0.00,,OVC009,0.00,VWS V14.01,2013-02-04 14:39:00,
2013-02-04 06:45:00,36.0,33.6,30.07,WNW,285,0.0,0.0,91,0.00,,OVC009,0.00,VWS V14.01,2013-02-04 14:45:00,
2013-02-04 06:50:00,36.0,33.6,30.08,WNW,285,0.0,0.0,91,0.00,,OVC009,0.00,VWS V14.01,2013-02-04 14:50:00,
2013-02-04 06:55:00,36.0,33.6,30.08,WNW,285,0.0,0.0,91,0.00,,OVC009,0.00,VWS V14.01,2013-02-04 14:55:00,
2013-02-04 07:00:00,36.0,33.6,30.08,WNW,285,0.0,0.0,91,0.00,,OVC009,0.00,VWS V14.01,2013-02-04 15:00:00,
2013-02-04 07:05:00,36.5,34.1,30.06,WNW,285,0.0,0.0,91,0.00,,,0.00,VWS V14.01,2013-02-04 15:05:00,
2013-02-04 07:10:00,36.5,34.1,30.06,WNW,285,0.0,0.0,91,0.00,,,0.00,VWS V14.01,2013-02-04 15:10:00,
2013-02-04 07:15:00,36.5,34.1,30.06,WNW,285,0.0,0.0,91,0.00,,,0.00,VWS V14.01,2013-02-04 15:15:00,
2013-02-04 07:20:00,36.5,34.1,30.07,WNW,285,2.0,2.0,91,0.00,,,0.00,VWS V14.01,2013-02-04 15:20:00,
2013-02-04 07:25:00,36.5,34.1,30.07,WNW,285,0.0,0.0,91,0.00,,,0.00,VWS V14.01,2013-02-04 15:25:00,
2013-02-04 07:30:00,36.5,34.1,30.07,WNW,285,2.0,2.0,91,0.00,,,0.00,VWS V14.01,2013-02-04 15:30:00,
2013-02-04 07:35:00,36.3,34.2,30.08,WNW,285,0.0,1.0,92,0.00,,,0.00,VWS V14.01,2013-02-04 15:35:00,
2013-02-04 07:41:00,36.3,34.2,30.08,WNW,285,0.0,3.0,92,0.00,,,0.00,VWS V14.01,2013-02-04 15:41:00,
2013-02-04 07:46:00,36.3,34.2,30.08,WNW,285,0.0,0.0,92,0.00,,,0.00,VWS V14.01,2013-02-04 15:46:00,
2013-02-04 07:51:00,36.3,34.2,30.08,WNW,285,0.0,0.0,92,0.00,,,0.00,VWS V14.01,2013-02-04 15:51:00,
2013-02-04 07:56:00,36.3,34.2,30.08,WNW,285,2.0,2.0,92,0.00,,,0.00,VWS V14.01,2013-02-04 15:56:00,
2013-02-04 08:01:00,36.3,34.2,30.08,WNW,285,0.0,0.0,92,0.00,,,0.00,VWS V14.01,2013-02-04 16:01:00,
2013-02-04 08:06:00,36.3,34.2,30.08,WNW,285,0.0,0.0,92,0.00,,,0.00,VWS V14.01,2013-02-04 16:06:00,
2013-02-04 08:11:00,36.3,34.2,30.08,WNW,285,0.0,0.0,92,0.00,,,0.00,VWS V14.01,2013-02-04 16:11:00,
2013-02-04 08:16:00,36.3,34.2,30.08,WNW,285,0.0,0.0,92,0.00,,,0.00,VWS V14.01,2013-02-04 16:16:00,
2013-02-04 08:21:00,36.3,34.2,30.08,WNW,285,0.0,0.0,92,0.00,,,0.00,VWS V14.01,2013-02-04 16:21:00,
2013-02-04 08:26:00,36.2,34.1,30.08,WNW,285,2.0,2.0,92,0.00,,,0.00,VWS V14.01,2013-02-04 16:26:00,
2013-02-04 08:32:00,36.2,34.1,30.09,WNW,285,0.0,0.0,92,0.00,,,0.00,VWS V14.01,2013-02-04 16:32:00,
2013-02-04 08:37:00,36.2,34.1,30.09,WNW,285,0.0,0.0,92,0.00,,,0.00,VWS V14.01,2013-02-04 16:37:00,
2013-02-04 08:42:00,36.2,34.1,30.09,WNW,285,1.0,1.0,92,0.00,,,0.00,VWS V14.01,2013-02-04 16:42:00,
2013-02-04 08:47:00,36.3,34.2,30.08,WNW,285,0.0,1.0,92,0.00,,,0.00,VWS V14.01,2013-02-04 16:47:00,
2013-02-04 08:52:00,36.3,34.2,30.08,WNW,285,2.0,2.0,92,0.00,,,0.00,VWS V14.01,2013-02-04 16:52:00,
2013-02-04 08:57:00,36.5,34.4,30.08,WNW,285,0.0,0.0,92,0.00,,,0.00,VWS V14.01,2013-02-04 16:57:00,
2013-02-04 09:02:00,36.6,34.5,30.08,WNW,285,0.0,0.0,92,0.00,,,0.00,VWS V14.01,2013-02-04 17:02:00,
2013-02-04 09:07:00,36.8,34.7,30.08,WNW,285,0.0,0.0,92,0.00,,,0.00,VWS V14.01,2013-02-04 17:07:00,
2013-02-04 09:12:00,36.8,34.7,30.08,WNW,285,1.0,1.0,92,0.00,,,0.00,VWS V14.01,2013-02-04 17:12:00,
2013-02-04 09:17:00,37.3,34.6,30.08,WNW,285,0.0,1.0,90,0.00,,,0.00,VWS V14.01,2013-02-04 17:17:00,
2013-02-04 09:23:00,37.5,34.8,30.08,WNW,285,0.0,2.0,90,0.01,,,0.01,VWS V14.01,2013-02-04 17:23:00,
2013-02-04 09:28:00,37.8,34.9,30.08,WNW,285,0.0,2.0,89,0.01,,,0.01,VWS V14.01,2013-02-04 17:28:00,
2013-02-04 09:33:00,37.8,34.9,30.08,WNW,289,2.0,2.0,89,0.01,,,0.01,VWS V14.01,2013-02-04 17:33:00,
2013-02-04 09:38:00,37.8,34.6,30.08,WNW,289,0.0,1.0,88,0.01,,,0.01,VWS V14.01,2013-02-04 17:38:00,
2013-02-04 09:43:00,38.5,35.3,30.08,WNW,289,2.0,2.0,88,0.01,,,0.01,VWS V14.01,2013-02-04 17:43:00,
2013-02-04 09:48:00,38.5,35.3,30.09,West,274,5.0,5.0,88,0.01,,,0.01,VWS V14.01,2013-02-04 17:48:00,
2013-02-04 09:53:00,38.5,35.3,30.09,West,274,5.0,5.0,88,0.01,,,0.01,VWS V14.01,2013-02-04 17:53:00,
2013-02-04 09:58:00,38.3,35.1,30.09,WNW,287,2.0,2.0,88,0.01,,,0.01,VWS V14.01,2013-02-04 17:58:00,
2013-02-04 10:03:00,38.3,35.1,30.09,WNW,287,1.0,2.0,88,0.01,,,0.01,VWS V14.01,2013-02-04 18:03:00,
2013-02-04 10:08:00,38.5,35.3,30.09,WNW,287,1.0,1.0,88,0.01,,,0.01,VWS V14.01,2013-02-04 18:08:00,
2013-02-04 10:13:00,38.8,35.6,30.09,WNW,287,3.0,3.0,88,0.01,,,0.01,VWS V14.01,2013-02-04 18:13:00,
2013-02-04 10:18:00,38.8,35.6,30.10,WNW,296,1.0,1.0,88,0.01,,,0.01,VWS V14.01,2013-02-04 18:18:00,
2013-02-04 10:24:00,39.3,36.0,30.10,West,281,0.0,0.0,88,0.00,,,0.01,VWS V14.01,2013-02-04 18:24:00,
2013-02-04 10:29:00,39.3,36.0,30.10,WNW,285,3.0,3.0,88,0.00,,,0.01,VWS V14.01,2013-02-04 18:29:00,
2013-02-04 10:34:00,39.9,35.8,30.09,WNW,301,1.0,1.0,85,0.00,,,0.01,VWS V14.01,2013-02-04 18:34:00,
2013-02-04 10:39:00,40.5,36.3,30.09,WNW,291,0.0,3.0,85,0.00,,,0.01,VWS V14.01,2013-02-04 18:39:00,
2013-02-04 10:44:00,40.5,36.3,30.09,WSW,253,0.0,0.0,85,0.00,,,0.01,VWS V14.01,2013-02-04 18:44:00,
2013-02-04 10:49:00,40.5,36.3,30.10,WNW,282,2.0,2.0,85,0.00,,,0.01,VWS V14.01,2013-02-04 18:49:00,
2013-02-04 10:54:00,40.3,35.2,30.10,WNW,282,0.0,0.0,82,0.00,,,0.01,VWS V14.01,2013-02-04 18:54:00,
2013-02-04 10:59:00,40.3,35.2,30.10,WNW,288,0.0,1.0,82,0.00,,,0.01,VWS V14.01,2013-02-04 18:59:00,
2013-02-04 11:04:00,40.6,35.5,30.09,WNW,294,1.0,1.0,82,0.00,,BKN009,0.01,VWS V14.01,2013-02-04 19:04:00,
2013-02-04 11:09:00,40.6,35.5,30.09,WNW,294,1.0,1.0,82,0.00,,BKN009,0.01,VWS V14.01,2013-02-04 19:09:00,
2013-02-04 11:14:00,40.6,35.5,30.09,WNW,282,0.0,0.0,82,0.00,,BKN009,0.01,VWS V14.01,2013-02-04 19:14:00,
2013-02-04 11:19:00,41.8,36.7,30.08,West,280,1.0,3.0,82,0.00,,BKN009,0.01,VWS V14.01,2013-02-04 19:19:00,
2013-02-04 11:24:00,41.8,36.1,30.08,West,280,2.0,2.0,80,0.00,,BKN009,0.01,VWS V14.01,2013-02-04 19:24:00,
2013-02-04 11:29:00,42.8,37.1,30.08,WNW,302,3.0,3.0,80,0.00,,BKN009,0.01,VWS V14.01,2013-02-04 19:29:00,
2013-02-04 11:34:00,42.8,37.1,30.07,WNW,289,1.0,1.0,80,0.00,,BKN009,0.01,VWS V14.01,2013-02-04 19:34:00,
2013-02-04 11:40:00,42.9,37.2,30.07,WNW,291,0.0,0.0,80,0.00,,BKN009,0.01,VWS V14.01,2013-02-04 19:40:00,
2013-02-04 11:45:00,43.3,36.3,30.07,WNW,291,6.0,6.0,76,0.00,,BKN009,0.01,VWS V14.01,2013-02-04 19:45:00,
2013-02-04 11:50:00,43.5,35.8,30.07,WNW,291,0.0,0.0,74,0.00,,BKN009,0.01,VWS V14.01,2013-02-04 19:50:00,
2013-02-04 11:55:00,43.5,35.8,30.07,WNW,291,0.0,0.0,74,0.00,,BKN009,0.01,VWS V14.01,2013-02-04 19:55:00,
2013-02-04 12:00:00,43.8,36.1,30.07,WNW,291,2.0,2.0,74,0.00,,BKN009,0.01,VWS V14.01,2013-02-04 20:00:00,
2013-02-04 12:05:00,44.3,36.5,30.06,West,270,3.0,3.0,74,0.00,,SCT012,0.01,VWS V14.01,2013-02-04 20:05:00,
2013-02-04 12:10:00,44.3,36.5,30.06,WNW,295,6.0,6.0,74,0.00,,SCT012,0.01,VWS V14.01,2013-02-04 20:10:00,
2013-02-04 12:16:00,44.6,36.8,30.06,WNW,284,3.0,5.0,74,0.00,,SCT012,0.01,VWS V14.01,2013-02-04 20:16:00,
2013-02-04 12:21:00,44.8,37.0,30.06,WNW,292,3.0,3.0,74,0.00,,SCT012,0.01,VWS V14.01,2013-02-04 20:21:00,
2013-02-04 12:26:00,44.8,37.0,30.06,WNW,299,3.0,3.0,74,0.00,,SCT012,0.01,VWS V14.01,2013-02-04 20:26:00,
2013-02-04 12:31:00,44.6,36.8,30.06,WNW,292,1.0,1.0,74,0.00,,SCT012,0.01,VWS V14.01,2013-02-04 20:31:00,
2013-02-04 12:36:00,44.6,36.8,30.05,NW,304,3.0,3.0,74,0.00,,SCT012,0.01,VWS V14.01,2013-02-04 20:36:00,
2013-02-04 12:41:00,44.5,36.7,30.05,WNW,291,1.0,3.0,74,0.00,,SCT012,0.01,VWS V14.01,2013-02-04 20:41:00,
2013-02-04 12:46:00,44.2,36.5,30.05,WNW,287,5.0,5.0,74,0.00,,SCT012,0.01,VWS V14.01,2013-02-04 20:46:00,
2013-02-04 12:51:00,44.1,36.4,30.06,WNW,287,0.0,0.0,74,0.00,,SCT012,0.01,VWS V14.01,2013-02-04 20:51:00,
2013-02-04 12:56:00,44.1,36.4,30.06,WNW,287,0.0,0.0,74,0.00,,SCT012,0.01,VWS V14.01,2013-02-04 20:56:00,
2013-02-04 13:01:00,44.1,36.4,30.05,WNW,287,0.0,0.0,74,0.00,,SCT017,0.01,VWS V14.01,2013-02-04 21:01:00,
2013-02-04 13:07:00,44.1,36.0,30.05,WNW,287,0.0,0.0,73,0.00,,SCT017,0.01,VWS V14.01,2013-02-04 21:07:00,
2013-02-04 13:12:00,44.1,36.0,30.05,WNW,287,0.0,0.0,73,0.00,,SCT017,0.01,VWS V14.01,2013-02-04 21:12:00,
2013-02-04 13:17:00,44.6,36.5,30.04,WNW,287,0.0,0.0,73,0.00,,SCT017,0.01,VWS V14.01,2013-02-04 21:17:00,
2013-02-04 13:22:00,44.8,36.7,30.04,WNW,287,0.0,0.0,73,0.00,,SCT017,0.01,VWS V14.01,2013-02-04 21:22:00,
2013-02-04 13:27:00,44.8,36.7,30.04,West,275,2.0,2.0,73,0.00,,SCT017,0.01,VWS V14.01,2013-02-04 21:27:00,
2013-02-04 13:32:00,44.2,36.1,30.05,West,275,0.0,1.0,73,0.00,,SCT017,0.01,VWS V14.01,2013-02-04 21:32:00,
2013-02-04 13:37:00,44.1,36.4,30.05,West,275,0.0,1.0,74,0.00,,SCT017,0.01,VWS V14.01,2013-02-04 21:37:00,
2013-02-04 13:42:00,43.9,35.8,30.05,West,277,1.0,2.0,73,0.00,,SCT017,0.01,VWS V14.01,2013-02-04 21:42:00,
2013-02-04 13:47:00,43.9,35.8,30.04,West,277,2.0,2.0,73,0.00,,SCT017,0.01,VWS V14.01,2013-02-04 21:47:00,
2013-02-04 13:52:00,43.9,35.8,30.04,West,277,0.0,0.0,73,0.00,,SCT017,0.01,VWS V14.01,2013-02-04 21:52:00,
2013-02-04 13:58:00,43.9,35.8,30.04,West,277,3.0,3.0,73,0.00,,SCT017,0.01,VWS V14.01,2013-02-04 21:58:00,
2013-02-04 14:03:00,44.3,36.2,30.04,West,277,3.0,3.0,73,0.00,,BKN017,0.01,VWS V14.01,2013-02-04 22:03:00,
2013-02-04 14:08:00,44.5,36.4,30.04,WNW,295,0.0,0.0,73,0.00,,BKN017,0.01,VWS V14.01,2013-02-04 22:08:00,
2013-02-04 14:13:00,44.8,36.7,30.04,WSW,253,0.0,0.0,73,0.00,,BKN017,0.01,VWS V14.01,2013-02-04 22:13:00,
2013-02-04 14:18:00,45.2,37.1,30.03,WSW,254,3.0,3.0,73,0.00,,BKN017,0.01,VWS V14.01,2013-02-04 22:18:00,
2013-02-04 14:23:00,45.2,37.1,30.03,WNW,282,1.0,1.0,73,0.00,,BKN017,0.01,VWS V14.01,2013-02-04 22:23:00,
2013-02-04 14:28:00,45.2,37.1,30.03,West,280,2.0,2.0,73,0.00,,BKN017,0.01,VWS V14.01,2013-02-04 22:28:00,
2013-02-04 14:33:00,45.2,37.1,30.04,WNW,301,2.0,2.0,73,0.00,,BKN017,0.01,VWS V14.01,2013-02-04 22:33:00,
2013-02-04 14:38:00,45.3,37.2,30.04,SW,234,0.0,0.0,73,0.00,,BKN017,0.01,VWS V14.01,2013-02-04 22:38:00,
2013-02-04 14:44:00,45.3,37.2,30.04,WNW,285,3.0,3.0,73,0.00,,BKN017,0.01,VWS V14.01,2013-02-04 22:44:00,
2013-02-04 14:49:00,45.6,37.5,30.04,WNW,294,0.0,6.0,73,0.00,,BKN017,0.01,VWS V14.01,2013-02-04 22:49:00,
2013-02-04 14:54:00,45.6,37.5,30.04,WNW,294,3.0,3.0,73,0.00,,BKN017,0.01,VWS V14.01,2013-02-04 22:54:00,
2013-02-04 14:59:00,45.1,37.0,30.04,WNW,294,1.0,1.0,73,0.00,,BKN017,0.01,VWS V14.01,2013-02-04 22:59:00,
2013-02-04 15:04:00,44.5,36.4,30.04,WNW,294,1.0,1.0,73,0.00,,FEW019,0.01,VWS V14.01,2013-02-04 23:04:00,
2013-02-04 15:09:00,44.3,36.2,30.04,WNW,294,1.0,1.0,73,0.00,,FEW019,0.01,VWS V14.01,2013-02-04 23:09:00,
2013-02-04 15:14:00,43.9,35.8,30.04,WNW,294,1.0,2.0,73,0.00,,FEW019,0.01,VWS V14.01,2013-02-04 23:14:00,
2013-02-04 15:20:00,43.9,35.8,30.04,WNW,294,2.0,2.0,73,0.00,,FEW019,0.01,VWS V14.01,2013-02-04 23:20:00,
2013-02-04 15:25:00,43.6,35.5,30.04,WNW,294,1.0,1.0,73,0.00,,FEW019,0.01,VWS V14.01,2013-02-04 23:25:00,
2013-02-04 15:30:00,43.6,35.9,30.04,WNW,294,0.0,0.0,74,0.00,,FEW019,0.01,VWS V14.01,2013-02-04 23:30:00,
2013-02-04 15:35:00,43.3,35.9,30.03,WNW,294,0.0,0.0,75,0.00,,FEW019,0.01,VWS V14.01,2013-02-04 23:35:00,
2013-02-04 15:40:00,43.3,35.9,30.03,WNW,294,0.0,0.0,75,0.00,,FEW019,0.01,VWS V14.01,2013-02-04 23:40:00,
2013-02-04 15:45:00,43.1,35.7,30.03,WNW,294,0.0,0.0,75,0.00,,FEW019,0.01,VWS V14.01,2013-02-04 23:45:00,
2013-02-04 15:50:00,43.1,35.7,30.03,WNW,294,0.0,0.0,75,0.00,,FEW019,0.01,VWS V14.01,2013-02-04 23:50:00,
2013-02-04 15:55:00,42.8,35.4,30.03,WNW,294,0.0,0.0,75,0.00,,FEW019,0.01,VWS V14.01,2013-02-04 23:55:00,
2013-02-04 16:00:00,42.8,35.4,30.03,WNW,294,0.0,0.0,75,0.00,,FEW019,0.01,VWS V14.01,2013-02-05 00:00:00,
2013-02-04 16:05:00,42.6,35.2,30.03,WNW,294,0.0,0.0,75,0.00,,FEW020,0.01,VWS V14.01,2013-02-05 00:05:00,
2013-02-04 16:10:00,42.6,35.2,30.03,WNW,294,0.0,0.0,75,0.00,,FEW020,0.01,VWS V14.01,2013-02-05 00:10:00,
2013-02-04 16:16:00,42.5,35.2,30.03,WNW,294,0.0,0.0,75,0.00,,FEW020,0.01,VWS V14.01,2013-02-05 00:16:00,
2013-02-04 16:21:00,42.2,34.9,30.03,WNW,294,0.0,0.0,75,0.00,,FEW020,0.01,VWS V14.01,2013-02-05 00:21:00,
2013-02-04 16:26:00,41.9,34.6,30.03,WNW,294,0.0,0.0,75,0.00,,FEW020,0.01,VWS V14.01,2013-02-05 00:26:00,
2013-02-04 16:31:00,41.3,34.0,30.03,WNW,294,0.0,0.0,75,0.00,,FEW020,0.01,VWS V14.01,2013-02-05 00:31:00,
2013-02-04 16:36:00,41.1,35.1,30.02,WNW,294,0.0,0.0,79,0.00,,FEW020,0.01,VWS V14.01,2013-02-05 00:36:00,
2013-02-04 16:41:00,41.1,35.1,30.02,WNW,294,0.0,0.0,79,0.00,,FEW020,0.01,VWS V14.01,2013-02-05 00:41:00,
2013-02-04 16:46:00,41.1,35.1,30.02,WNW,294,0.0,0.0,79,0.00,,FEW020,0.01,VWS V14.01,2013-02-05 00:46:00,
2013-02-04 16:51:00,39.5,33.5,30.02,WNW,294,0.0,0.0,79,0.00,,FEW020,0.01,VWS V14.01,2013-02-05 00:51:00,
2013-02-04 16:56:00,39.5,34.5,30.02,WNW,294,0.0,0.0,82,0.00,,FEW020,0.01,VWS V14.01,2013-02-05 00:56:00,
2013-02-04 17:01:00,39.5,34.5,30.01,WNW,294,0.0,0.0,82,0.00,,CLR,0.01,VWS V14.01,2013-02-05 01:01:00,
2013-02-04 17:07:00,39.5,34.5,30.01,WNW,294,0.0,0.0,82,0.00,,CLR,0.01,VWS V14.01,2013-02-05 01:07:00,
2013-02-04 17:12:00,39.5,34.5,30.01,WNW,294,0.0,0.0,82,0.00,,CLR,0.01,VWS V14.01,2013-02-05 01:12:00,
2013-02-04 17:17:00,36.9,31.9,30.01,WNW,294,0.0,0.0,82,0.00,,CLR,0.01,VWS V14.01,2013-02-05 01:17:00,
2013-02-04 17:22:00,36.9,31.9,30.01,WNW,294,0.0,0.0,82,0.00,,CLR,0.01,VWS V14.01,2013-02-05 01:22:00,
2013-02-04 17:27:00,36.3,31.3,30.01,WNW,294,0.0,0.0,82,0.00,,CLR,0.01,VWS V14.01,2013-02-05 01:27:00,
2013-02-04 17:32:00,35.6,30.7,30.01,WNW,294,0.0,0.0,82,0.00,,CLR,0.01,VWS V14.01,2013-02-05 01:32:00,
2013-02-04 17:37:00,35.3,31.5,30.01,WNW,294,0.0,0.0,86,0.00,,CLR,0.01,VWS V14.01,2013-02-05 01:37:00,
2013-02-04 17:42:00,35.1,31.3,30.01,WNW,294,0.0,0.0,86,0.00,,CLR,0.01,VWS V14.01,2013-02-05 01:42:00,
2013-02-04 17:47:00,34.8,31.0,30.01,WNW,294,0.0,0.0,86,0.00,,CLR,0.01,VWS V14.01,2013-02-05 01:47:00,
2013-02-04 17:52:00,34.5,30.8,30.01,WNW,294,0.0,0.0,86,0.00,,CLR,0.01,VWS V14.01,2013-02-05 01:52:00,
2013-02-04 17:57:00,34.2,30.5,30.01,WNW,294,0.0,0.0,86,0.00,,CLR,0.01,VWS V14.01,2013-02-05 01:57:00,
2013-02-04 18:02:00,34.1,30.4,30.00,WNW,294,0.0,0.0,86,0.00,,CLR,0.01,VWS V14.01,2013-02-05 02:02:00,
2013-02-04 18:08:00,33.8,30.6,30.00,WNW,294,0.0,0.0,88,0.00,,CLR,0.01,VWS V14.01,2013-02-05 02:08:00,
2013-02-04 18:13:00,33.8,30.6,30.00,WNW,294,0.0,0.0,88,0.00,,CLR,0.01,VWS V14.01,2013-02-05 02:13:00,
2013-02-04 18:18:00,33.4,30.2,30.00,WNW,294,0.0,0.0,88,0.00,,CLR,0.01,VWS V14.01,2013-02-05 02:18:00,
2013-02-04 18:23:00,33.4,30.2,30.00,WNW,294,0.0,0.0,88,0.00,,CLR,0.01,VWS V14.01,2013-02-05 02:23:00,
2013-02-04 18:28:00,33.4,30.2,30.00,WNW,294,0.0,0.0,88,0.00,,CLR,0.01,VWS V14.01,2013-02-05 02:28:00,
2013-02-04 18:33:00,33.1,29.9,30.01,WNW,294,0.0,0.0,88,0.00,,CLR,0.01,VWS V14.01,2013-02-05 02:33:00,
2013-02-04 18:38:00,32.9,29.7,30.01,WNW,294,0.0,0.0,88,0.00,,CLR,0.01,VWS V14.01,2013-02-05 02:38:00,
2013-02-04 18:43:00,32.6,30.0,30.01,WNW,294,0.0,0.0,90,0.00,,CLR,0.01,VWS V14.01,2013-02-05 02:43:00,
2013-02-04 18:48:00,32.3,29.7,30.01,WNW,294,0.0,0.0,90,0.00,,CLR,0.01,VWS V14.01,2013-02-05 02:48:00,
2013-02-04 18:53:00,32.3,29.7,30.01,WNW,294,0.0,0.0,90,0.00,,CLR,0.01,VWS V14.01,2013-02-05 02:53:00,
2013-02-04 18:58:00,32.0,29.4,30.01,WNW,294,0.0,0.0,90,0.00,,CLR,0.01,VWS V14.01,2013-02-05 02:58:00,
2013-02-04 19:04:00,31.4,28.8,30.00,WNW,294,0.0,0.0,90,0.00,,,0.01,VWS V14.01,2013-02-05 03:04:00,
2013-02-04 19:09:00,31.3,28.7,30.00,WNW,294,0.0,0.0,90,0.00,,,0.01,VWS V14.01,2013-02-05 03:09:00,
2013-02-04 19:14:00,31.3,28.7,30.00,WNW,294,0.0,0.0,90,0.00,,,0.01,VWS V14.01,2013-02-05 03:14:00,
2013-02-04 19:19:00,31.3,28.7,30.00,WNW,294,0.0,0.0,90,0.00,,,0.01,VWS V14.01,2013-02-05 03:19:00,
2013-02-04 19:24:00,31.4,28.8,30.00,WNW,294,0.0,0.0,90,0.00,,,0.01,VWS V14.01,2013-02-05 03:24:00,
2013-02-04 19:29:00,31.3,28.7,30.00,WNW,294,0.0,0.0,90,0.00,,,0.01,VWS V14.01,2013-02-05 03:29:00,
2013-02-04 19:34:00,31.1,28.5,30.00,WNW,294,0.0,0.0,90,0.00,,,0.01,VWS V14.01,2013-02-05 03:34:00,
2013-02-04 19:39:00,31.0,28.4,30.00,WNW,294,0.0,0.0,90,0.00,,,0.01,VWS V14.01,2013-02-05 03:39:00,
2013-02-04 19:44:00,30.7,28.1,30.00,WNW,294,0.0,0.0,90,0.00,,,0.01,VWS V14.01,2013-02-05 03:44:00,
2013-02-04 19:49:00,30.5,27.9,30.00,WNW,294,0.0,0.0,90,0.00,,,0.01,VWS V14.01,2013-02-05 03:49:00,
2013-02-04 19:55:00,30.3,27.7,30.00,WNW,294,0.0,0.0,90,0.00,,,0.01,VWS V14.01,2013-02-05 03:55:00,
2013-02-04 20:00:00,30.1,27.5,30.00,WNW,294,0.0,0.0,90,0.00,,,0.01,VWS V14.01,2013-02-05 04:00:00,
2013-02-04 20:05:00,30.0,27.4,30.00,WNW,294,0.0,0.0,90,0.00,,,0.01,VWS V14.01,2013-02-05 04:05:00,
2013-02-04 20:10:00,30.0,27.4,30.00,WNW,294,0.0,0.0,90,0.00,,,0.01,VWS V14.01,2013-02-05 04:10:00,
2013-02-04 20:15:00,29.5,27.5,30.00,WNW,294,0.0,0.0,92,0.00,,,0.01,VWS V14.01,2013-02-05 04:15:00,
2013-02-04 20:20:00,29.5,27.5,30.01,WNW,294,0.0,0.0,92,0.00,,,0.01,VWS V14.01,2013-02-05 04:20:00,
2013-02-04 20:25:00,29.5,27.5,30.01,WNW,294,0.0,0.0,92,0.00,,,0.01,VWS V14.01,2013-02-05 04:25:00,
2013-02-04 20:30:00,29.5,27.5,30.01,WNW,294,0.0,0.0,92,0.00,,,0.01,VWS V14.01,2013-02-05 04:30:00,
2013-02-04 20:35:00,29.5,27.7,30.00,WNW,294,0.0,0.0,93,0.00,,,0.01,VWS V14.01,2013-02-05 04:35:00,
2013-02-04 20:40:00,29.5,27.7,30.00,WNW,294,0.0,0.0,93,0.00,,,0.01,VWS V14.01,2013-02-05 04:40:00,
2013-02-04 20:46:00,29.5,27.7,30.00,WNW,294,0.0,0.0,93,0.00,,,0.01,VWS V14.01,2013-02-05 04:46:00,
2013-02-04 20:51:00,29.5,27.7,30.00,WNW,294,0.0,0.0,93,0.00,,,0.01,VWS V14.01,2013-02-05 04:51:00,
2013-02-04 20:56:00,29.4,27.6,30.00,WNW,294,0.0,0.0,93,0.00,,,0.01,VWS V14.01,2013-02-05 04:56:00,
2013-02-04 21:00:00,29.4,27.6,30.00,WNW,294,0.0,0.0,93,0.00,,,0.01,VWS V14.01,2013-02-05 05:00:00,
2013-02-04 21:01:00,29.4,27.6,30.00,WNW,294,0.0,0.0,93,0.00,,,0.01,VWS V14.01,2013-02-05 05:01:00,
2013-02-04 21:06:00,29.4,27.6,30.00,WNW,294,0.0,0.0,93,0.00,,,0.01,VWS V14.01,2013-02-05 05:06:00,
2013-02-04 21:11:00,29.4,27.6,30.00,WNW,294,0.0,0.0,93,0.00,,,0.01,VWS V14.01,2013-02-05 05:11:00,
2013-02-04 21:16:00,29.4,27.6,30.00,WNW,294,0.0,0.0,93,0.00,,,0.01,VWS V14.01,2013-02-05 05:16:00,
2013-02-04 21:21:00,29.5,27.7,30.00,WNW,294,0.0,0.0,93,0.00,,,0.01,VWS V14.01,2013-02-05 05:21:00,
2013-02-04 21:26:00,29.5,27.7,30.00,WNW,294,0.0,0.0,93,0.00,,,0.01,VWS V14.01,2013-02-05 05:26:00,
2013-02-04 21:31:00,29.5,27.7,29.99,WNW,294,0.0,0.0,93,0.00,,,0.01,VWS V14.01,2013-02-05 05:31:00,
2013-02-04 21:37:00,29.5,27.7,29.99,WNW,294,0.0,0.0,93,0.00,,,0.01,VWS V14.01,2013-02-05 05:37:00,
2013-02-04 21:42:00,30.0,28.2,29.99,WNW,294,0.0,0.0,93,0.00,,,0.01,VWS V14.01,2013-02-05 05:42:00,
2013-02-04 21:47:00,30.0,28.2,29.99,WNW,294,0.0,0.0,93,0.00,,,0.01,VWS V14.01,2013-02-05 05:47:00,
2013-02-04 21:52:00,30.4,28.6,29.99,WNW,294,0.0,0.0,93,0.00,,,0.01,VWS V14.01,2013-02-05 05:52:00,
2013-02-04 21:57:00,30.4,28.9,29.99,WNW,294,0.0,0.0,94,0.00,,,0.01,VWS V14.01,2013-02-05 05:57:00,
2013-02-04 22:02:00,30.5,29.0,29.99,WNW,294,0.0,0.0,94,0.00,,,0.01,VWS V14.01,2013-02-05 06:02:00,
2013-02-04 22:07:00,30.5,29.0,29.99,WNW,294,0.0,0.0,94,0.00,,,0.01,VWS V14.01,2013-02-05 06:07:00,
2013-02-04 22:12:00,31.0,29.5,29.99,WNW,294,0.0,0.0,94,0.00,,,0.01,VWS V14.01,2013-02-05 06:12:00,
2013-02-04 22:17:00,31.0,29.5,29.99,WNW,294,0.0,0.0,94,0.00,,,0.01,VWS V14.01,2013-02-05 06:17:00,
2013-02-04 22:22:00,31.4,29.9,29.99,WNW,294,0.0,0.0,94,0.00,,,0.01,VWS V14.01,2013-02-05 06:22:00,
2013-02-04 22:27:00,31.4,29.9,29.99,WNW,294,0.0,0.0,94,0.00,,,0.01,VWS V14.01,2013-02-05 06:27:00,
2013-02-04 22:32:00,31.4,29.9,29.98,WNW,294,0.0,0.0,94,0.00,,,0.01,VWS V14.01,2013-02-05 06:32:00,
2013-02-04 22:37:00,31.3,30.0,29.98,WNW,294,0.0,0.0,95,0.00,,,0.01,VWS V14.01,2013-02-05 06:37:00,
2013-02-04 22:42:00,31.4,30.1,29.98,WNW,294,0.0,0.0,95,0.00,,,0.01,VWS V14.01,2013-02-05 06:42:00,
2013-02-04 22:47:00,31.4,30.1,29.97,WNW,294,0.0,0.0,95,0.00,,,0.01,VWS V14.01,2013-02-05 06:47:00,
2013-02-04 22:53:00,31.4,30.1,29.97,WNW,294,0.0,0.0,95,0.00,,,0.01,VWS V14.01,2013-02-05 06:53:00,
2013-02-04 22:58:00,31.4,30.1,29.97,WNW,294,0.0,0.0,95,0.00,,,0.01,VWS V14.01,2013-02-05 06:58:00,
2013-02-04 23:03:00,31.4,30.1,29.97,WNW,294,0.0,0.0,95,0.00,,,0.01,VWS V14.01,2013-02-05 07:03:00,
2013-02-04 23:08:00,31.4,30.1,29.97,WNW,294,0.0,0.0,95,0.00,,,0.01,VWS V14.01,2013-02-05 07:08:00,
2013-02-04 23:13:00,31.4,30.1,29.97,WNW,294,0.0,0.0,95,0.00,,,0.01,VWS V14.01,2013-02-05 07:13:00,
2013-02-04 23:18:00,31.4,30.1,29.97,WNW,294,0.0,0.0,95,0.00,,,0.01,VWS V14.01,2013-02-05 07:18:00,
2013-02-04 23:23:00,31.6,30.3,29.97,WNW,294,0.0,1.0,95,0.00,,,0.01,VWS V14.01,2013-02-05 07:23:00,
2013-02-04 23:28:00,31.6,30.3,29.97,WNW,294,0.0,0.0,95,0.00,,,0.01,VWS V14.01,2013-02-05 07:28:00,
2013-02-04 23:33:00,31.6,30.3,29.96,WNW,294,0.0,0.0,95,0.00,,,0.01,VWS V14.01,2013-02-05 07:33:00,
2013-02-04 23:38:00,31.6,30.3,29.96,WNW,294,0.0,0.0,95,0.00,,,0.01,VWS V14.01,2013-02-05 07:38:00,
2013-02-04 23:43:00,31.6,30.3,29.96,WNW,294,1.0,1.0,95,0.00,,,0.01,VWS V14.01,2013-02-05 07:43:00,
2013-02-04 23:48:00,31.6,30.3,29.96,NW,306,0.0,0.0,95,0.00,,,0.01,VWS V14.01,2013-02-05 07:48:00,
2013-02-04 23:54:00,32.0,30.7,29.96,NW,306,0.0,0.0,95,0.00,,,0.01,VWS V14.01,2013-02-05 07:54:00,
2013-02-04 23:59:00,32.0,30.7,29.96,NW,306,0.0,0.0,95,0.00,,,0.01,VWS V14.01,2013-02-05 07:59:00,